sensor_id;sensor_type;location;lat;lon;timestamp;temperature;humidity
26304;DHT22;57113;48.680;8.890;2023-04-01T00:01:12;12.10;99.90
26304;DHT22;57113;48.680;8.890;2023-04-01T00:03:39;12.10;99.90
26304;DHT22;57113;48.680;8.890;2023-04-01T00:06:05;12.10;99.90
26304;DHT22;57113;48.680;8.890;2023-04-01T00:08:31;12.10;99.90
26304;DHT22;57113;48.680;8.890;2023-04-01T00:10:57;12.10;99.90
26304;DHT22;57113;48.680;8.890;2023-04-01T00:13:24;12.10;99.90
26304;DHT22;57113;48.680;8.890;2023-04-01T00:15:50;12.10;99.90
26304;DHT22;57113;48.680;8.890;2023-04-01T00:18:16;12.10;99.90
26304;DHT22;57113;48.680;8.890;2023-04-01T00:20:46;12.10;99.90
26304;DHT22;57113;48.680;8.890;2023-04-01T00:23:13;12.00;99.90
26304;DHT22;57113;48.680;8.890;2023-04-01T00:25:39;12.00;99.90
26304;DHT22;57113;48.680;8.890;2023-04-01T00:28:05;12.10;99.90
26304;DHT22;57113;48.680;8.890;2023-04-01T00:30:31;12.10;99.90
26304;DHT22;57113;48.680;8.890;2023-04-01T00:32:56;12.00;99.90
26304;DHT22;57113;48.680;8.890;2023-04-01T00:35:22;12.00;99.90
26304;DHT22;57113;48.680;8.890;2023-04-01T00:37:48;12.00;99.90
26304;DHT22;57113;48.680;8.890;2023-04-01T00:40:27;12.00;99.90
26304;DHT22;57113;48.680;8.890;2023-04-01T00:42:53;12.00;99.90
26304;DHT22;57113;48.680;8.890;2023-04-01T00:45:34;12.00;99.90
26304;DHT22;57113;48.680;8.890;2023-04-01T00:48:08;12.00;99.90
26304;DHT22;57113;48.680;8.890;2023-04-01T00:50:37;12.00;99.90
26304;DHT22;57113;48.680;8.890;2023-04-01T00:53:05;12.00;99.90
26304;DHT22;57113;48.680;8.890;2023-04-01T00:55:35;12.00;99.90
26304;DHT22;57113;48.680;8.890;2023-04-01T00:58:03;12.00;99.90
26304;DHT22;57113;48.680;8.890;2023-04-01T01:00:30;12.00;99.90
26304;DHT22;57113;48.680;8.890;2023-04-01T01:02:57;12.00;99.90
26304;DHT22;57113;48.680;8.890;2023-04-01T01:06:04;12.00;99.90
26304;DHT22;57113;48.680;8.890;2023-04-01T01:08:44;12.00;99.90
26304;DHT22;57113;48.680;8.890;2023-04-01T01:11:15;12.00;99.90
26304;DHT22;57113;48.680;8.890;2023-04-01T01:14:07;12.00;99.90
26304;DHT22;57113;48.680;8.890;2023-04-01T01:16:45;12.00;99.90
26304;DHT22;57113;48.680;8.890;2023-04-01T01:22:23;12.00;99.90
26304;DHT22;57113;48.680;8.890;2023-04-01T01:27:54;12.00;99.90
26304;DHT22;57113;48.680;8.890;2023-04-01T01:30:35;12.00;99.90
26304;DHT22;57113;48.680;8.890;2023-04-01T01:33:33;12.00;99.90
26304;DHT22;57113;48.680;8.890;2023-04-01T01:36:04;12.00;99.90
26304;DHT22;57113;48.680;8.890;2023-04-01T01:38:33;12.00;99.90
26304;DHT22;57113;48.680;8.890;2023-04-01T01:41:01;12.00;99.90
26304;DHT22;57113;48.680;8.890;2023-04-01T01:43:43;11.90;99.90
26304;DHT22;57113;48.680;8.890;2023-04-01T01:46:17;11.90;99.90
26304;DHT22;57113;48.680;8.890;2023-04-01T01:48:44;11.90;99.90
26304;DHT22;57113;48.680;8.890;2023-04-01T01:51:11;12.00;99.90
26304;DHT22;57113;48.680;8.890;2023-04-01T01:53:37;11.90;99.90
26304;DHT22;57113;48.680;8.890;2023-04-01T01:56:03;11.90;99.90
26304;DHT22;57113;48.680;8.890;2023-04-01T01:58:36;11.90;99.90
26304;DHT22;57113;48.680;8.890;2023-04-01T02:01:08;11.90;99.90
26304;DHT22;57113;48.680;8.890;2023-04-01T02:03:37;11.90;99.90
26304;DHT22;57113;48.680;8.890;2023-04-01T02:06:07;11.90;99.90
26304;DHT22;57113;48.680;8.890;2023-04-01T02:08:49;11.90;99.90
26304;DHT22;57113;48.680;8.890;2023-04-01T02:11:19;11.90;99.90
26304;DHT22;57113;48.680;8.890;2023-04-01T02:13:58;11.90;99.90
26304;DHT22;57113;48.680;8.890;2023-04-01T02:16:31;11.90;99.90
26304;DHT22;57113;48.680;8.890;2023-04-01T02:18:58;11.90;99.90
26304;DHT22;57113;48.680;8.890;2023-04-01T02:21:28;11.90;99.90
26304;DHT22;57113;48.680;8.890;2023-04-01T02:23:56;11.90;99.90
26304;DHT22;57113;48.680;8.890;2023-04-01T02:26:24;11.90;99.90
26304;DHT22;57113;48.680;8.890;2023-04-01T02:28:52;11.90;99.90
26304;DHT22;57113;48.680;8.890;2023-04-01T02:31:18;11.90;99.90
26304;DHT22;57113;48.680;8.890;2023-04-01T02:33:44;11.90;99.90
26304;DHT22;57113;48.680;8.890;2023-04-01T02:36:12;11.80;99.90
26304;DHT22;57113;48.680;8.890;2023-04-01T02:38:38;11.90;99.90
26304;DHT22;57113;48.680;8.890;2023-04-01T02:41:05;11.90;99.90
26304;DHT22;57113;48.680;8.890;2023-04-01T02:43:32;11.80;99.90
26304;DHT22;57113;48.680;8.890;2023-04-01T02:45:57;11.80;99.90
26304;DHT22;57113;48.680;8.890;2023-04-01T02:48:23;11.80;99.90
26304;DHT22;57113;48.680;8.890;2023-04-01T02:50:49;11.80;99.90
26304;DHT22;57113;48.680;8.890;2023-04-01T02:53:15;11.80;99.90
26304;DHT22;57113;48.680;8.890;2023-04-01T02:55:41;11.80;99.90
26304;DHT22;57113;48.680;8.890;2023-04-01T02:58:07;11.80;99.90
26304;DHT22;57113;48.680;8.890;2023-04-01T03:00:32;11.80;99.90
26304;DHT22;57113;48.680;8.890;2023-04-01T03:02:58;11.80;99.90
26304;DHT22;57113;48.680;8.890;2023-04-01T03:05:24;11.80;99.90
26304;DHT22;57113;48.680;8.890;2023-04-01T03:07:50;11.80;99.90
26304;DHT22;57113;48.680;8.890;2023-04-01T03:10:15;11.80;99.90
26304;DHT22;57113;48.680;8.890;2023-04-01T03:12:41;11.80;99.90
26304;DHT22;57113;48.680;8.890;2023-04-01T03:15:08;11.80;99.90
26304;DHT22;57113;48.680;8.890;2023-04-01T03:17:35;11.80;99.90
26304;DHT22;57113;48.680;8.890;2023-04-01T03:20:00;11.80;99.90
26304;DHT22;57113;48.680;8.890;2023-04-01T03:22:26;11.80;99.90
26304;DHT22;57113;48.680;8.890;2023-04-01T03:24:51;11.70;99.90
26304;DHT22;57113;48.680;8.890;2023-04-01T03:27:17;11.80;99.90
26304;DHT22;57113;48.680;8.890;2023-04-01T03:29:43;11.80;99.90
26304;DHT22;57113;48.680;8.890;2023-04-01T03:32:08;11.70;99.90
26304;DHT22;57113;48.680;8.890;2023-04-01T03:34:34;11.70;99.90
26304;DHT22;57113;48.680;8.890;2023-04-01T03:36:59;11.70;99.90
26304;DHT22;57113;48.680;8.890;2023-04-01T03:39:25;11.70;99.90
26304;DHT22;57113;48.680;8.890;2023-04-01T03:41:52;11.70;99.90
26304;DHT22;57113;48.680;8.890;2023-04-01T03:44:19;11.70;99.90
26304;DHT22;57113;48.680;8.890;2023-04-01T03:46:44;11.70;99.90
26304;DHT22;57113;48.680;8.890;2023-04-01T03:49:10;11.70;99.90
26304;DHT22;57113;48.680;8.890;2023-04-01T03:51:41;11.70;99.90
26304;DHT22;57113;48.680;8.890;2023-04-01T03:54:08;11.70;99.90
26304;DHT22;57113;48.680;8.890;2023-04-01T03:56:35;11.70;99.90
26304;DHT22;57113;48.680;8.890;2023-04-01T03:59:08;11.70;99.90
26304;DHT22;57113;48.680;8.890;2023-04-01T04:01:34;11.70;99.90
26304;DHT22;57113;48.680;8.890;2023-04-01T04:04:00;11.70;99.90
26304;DHT22;57113;48.680;8.890;2023-04-01T04:06:26;11.70;99.90
26304;DHT22;57113;48.680;8.890;2023-04-01T04:08:52;11.70;99.90
26304;DHT22;57113;48.680;8.890;2023-04-01T04:11:21;11.70;99.90
26304;DHT22;57113;48.680;8.890;2023-04-01T04:13:47;11.70;99.90
26304;DHT22;57113;48.680;8.890;2023-04-01T04:16:17;11.70;99.90
26304;DHT22;57113;48.680;8.890;2023-04-01T04:18:43;11.70;99.90
26304;DHT22;57113;48.680;8.890;2023-04-01T04:21:13;11.70;99.90
26304;DHT22;57113;48.680;8.890;2023-04-01T04:23:39;11.70;99.90
26304;DHT22;57113;48.680;8.890;2023-04-01T04:26:10;11.70;99.90
26304;DHT22;57113;48.680;8.890;2023-04-01T04:28:35;11.60;99.90
26304;DHT22;57113;48.680;8.890;2023-04-01T04:31:02;11.60;99.90
26304;DHT22;57113;48.680;8.890;2023-04-01T04:33:29;11.60;99.90
26304;DHT22;57113;48.680;8.890;2023-04-01T04:35:56;11.60;99.90
26304;DHT22;57113;48.680;8.890;2023-04-01T04:38:23;11.60;99.90
26304;DHT22;57113;48.680;8.890;2023-04-01T04:40:49;11.60;99.90
26304;DHT22;57113;48.680;8.890;2023-04-01T04:43:16;11.60;99.90
26304;DHT22;57113;48.680;8.890;2023-04-01T04:45:42;11.60;99.90
26304;DHT22;57113;48.680;8.890;2023-04-01T04:48:09;11.60;99.90
26304;DHT22;57113;48.680;8.890;2023-04-01T04:50:35;11.60;99.90
26304;DHT22;57113;48.680;8.890;2023-04-01T04:53:02;11.60;99.90
26304;DHT22;57113;48.680;8.890;2023-04-01T04:55:28;11.60;99.90
26304;DHT22;57113;48.680;8.890;2023-04-01T04:57:53;11.60;99.90
26304;DHT22;57113;48.680;8.890;2023-04-01T05:00:19;11.60;99.90
26304;DHT22;57113;48.680;8.890;2023-04-01T05:02:45;11.60;99.90
26304;DHT22;57113;48.680;8.890;2023-04-01T05:05:10;11.60;99.90
26304;DHT22;57113;48.680;8.890;2023-04-01T05:07:36;11.60;99.90
26304;DHT22;57113;48.680;8.890;2023-04-01T05:10:02;11.60;99.90
26304;DHT22;57113;48.680;8.890;2023-04-01T05:12:28;11.60;99.90
26304;DHT22;57113;48.680;8.890;2023-04-01T05:14:53;11.60;99.90
26304;DHT22;57113;48.680;8.890;2023-04-01T05:17:19;11.60;99.90
26304;DHT22;57113;48.680;8.890;2023-04-01T05:19:45;11.60;99.90
26304;DHT22;57113;48.680;8.890;2023-04-01T05:22:10;11.60;99.90
26304;DHT22;57113;48.680;8.890;2023-04-01T05:24:36;11.60;99.90
26304;DHT22;57113;48.680;8.890;2023-04-01T05:27:02;11.60;99.90
26304;DHT22;57113;48.680;8.890;2023-04-01T05:29:27;11.60;99.90
26304;DHT22;57113;48.680;8.890;2023-04-01T05:31:53;11.60;99.90
26304;DHT22;57113;48.680;8.890;2023-04-01T05:34:19;11.60;99.90
26304;DHT22;57113;48.680;8.890;2023-04-01T05:36:45;11.60;99.90
26304;DHT22;57113;48.680;8.890;2023-04-01T05:39:10;11.60;99.90
26304;DHT22;57113;48.680;8.890;2023-04-01T05:41:37;11.60;99.90
26304;DHT22;57113;48.680;8.890;2023-04-01T05:44:04;11.60;99.90
26304;DHT22;57113;48.680;8.890;2023-04-01T05:46:31;11.60;99.90
26304;DHT22;57113;48.680;8.890;2023-04-01T05:48:57;11.50;99.90
26304;DHT22;57113;48.680;8.890;2023-04-01T05:51:22;11.40;99.90
26304;DHT22;57113;48.680;8.890;2023-04-01T05:53:48;11.30;99.90
26304;DHT22;57113;48.680;8.890;2023-04-01T05:56:14;11.20;99.90
26304;DHT22;57113;48.680;8.890;2023-04-01T05:58:40;11.20;99.90
26304;DHT22;57113;48.680;8.890;2023-04-01T06:01:08;11.20;99.90
26304;DHT22;57113;48.680;8.890;2023-04-01T06:03:35;11.10;99.90
26304;DHT22;57113;48.680;8.890;2023-04-01T06:06:01;11.10;99.90
26304;DHT22;57113;48.680;8.890;2023-04-01T06:08:27;11.10;99.90
26304;DHT22;57113;48.680;8.890;2023-04-01T06:11:11;11.20;99.90
26304;DHT22;57113;48.680;8.890;2023-04-01T06:22:02;11.20;99.90
26304;DHT22;57113;48.680;8.890;2023-04-01T06:33:09;11.20;99.90
26304;DHT22;57113;48.680;8.890;2023-04-01T06:38:23;11.20;99.90
26304;DHT22;57113;48.680;8.890;2023-04-01T06:46:41;11.20;99.90
26304;DHT22;57113;48.680;8.890;2023-04-01T06:51:59;11.30;99.90
26304;DHT22;57113;48.680;8.890;2023-04-01T06:54:40;11.30;99.90
26304;DHT22;57113;48.680;8.890;2023-04-01T06:57:41;11.30;99.90
26304;DHT22;57113;48.680;8.890;2023-04-01T07:00:31;11.30;99.90
26304;DHT22;57113;48.680;8.890;2023-04-01T07:03:16;11.30;99.90
26304;DHT22;57113;48.680;8.890;2023-04-01T07:05:43;11.30;99.90
26304;DHT22;57113;48.680;8.890;2023-04-01T07:08:13;11.30;99.90
26304;DHT22;57113;48.680;8.890;2023-04-01T07:11:01;11.30;99.90
26304;DHT22;57113;48.680;8.890;2023-04-01T07:13:39;11.30;99.90
26304;DHT22;57113;48.680;8.890;2023-04-01T07:16:17;11.30;99.90
26304;DHT22;57113;48.680;8.890;2023-04-01T07:21:44;11.30;99.90
26304;DHT22;57113;48.680;8.890;2023-04-01T07:24:17;11.30;99.90
26304;DHT22;57113;48.680;8.890;2023-04-01T07:26:46;11.30;99.90
26304;DHT22;57113;48.680;8.890;2023-04-01T07:29:14;11.30;99.90
26304;DHT22;57113;48.680;8.890;2023-04-01T07:31:45;11.40;99.90
26304;DHT22;57113;48.680;8.890;2023-04-01T07:37:28;11.30;99.90
26304;DHT22;57113;48.680;8.890;2023-04-01T07:40:05;11.30;99.90
26304;DHT22;57113;48.680;8.890;2023-04-01T07:42:55;11.30;99.90
26304;DHT22;57113;48.680;8.890;2023-04-01T07:50:28;11.40;99.90
26304;DHT22;57113;48.680;8.890;2023-04-01T07:55:50;11.40;99.90
26304;DHT22;57113;48.680;8.890;2023-04-01T08:01:24;11.40;99.90
26304;DHT22;57113;48.680;8.890;2023-04-01T08:07:30;11.40;99.90
26304;DHT22;57113;48.680;8.890;2023-04-01T08:10:01;11.40;99.90
26304;DHT22;57113;48.680;8.890;2023-04-01T08:12:43;11.40;99.90
26304;DHT22;57113;48.680;8.890;2023-04-01T08:15:52;11.40;99.90
26304;DHT22;57113;48.680;8.890;2023-04-01T08:21:21;11.40;99.90
26304;DHT22;57113;48.680;8.890;2023-04-01T08:23:52;11.40;99.90
26304;DHT22;57113;48.680;8.890;2023-04-01T08:26:35;11.40;99.90
26304;DHT22;57113;48.680;8.890;2023-04-01T08:31:43;11.40;99.90
26304;DHT22;57113;48.680;8.890;2023-04-01T08:34:24;11.40;99.90
26304;DHT22;57113;48.680;8.890;2023-04-01T08:37:07;11.40;99.90
26304;DHT22;57113;48.680;8.890;2023-04-01T08:39:46;11.40;99.90
26304;DHT22;57113;48.680;8.890;2023-04-01T08:42:57;11.40;99.90
26304;DHT22;57113;48.680;8.890;2023-04-01T08:48:35;11.40;99.90
26304;DHT22;57113;48.680;8.890;2023-04-01T08:51:15;11.40;99.90
26304;DHT22;57113;48.680;8.890;2023-04-01T09:02:25;11.40;99.90
26304;DHT22;57113;48.680;8.890;2023-04-01T09:10:53;11.40;99.90
26304;DHT22;57113;48.680;8.890;2023-04-01T09:13:49;11.40;99.90
26304;DHT22;57113;48.680;8.890;2023-04-01T09:22:39;11.50;99.90
26304;DHT22;57113;48.680;8.890;2023-04-01T09:25:55;11.50;99.90
26304;DHT22;57113;48.680;8.890;2023-04-01T09:28:30;11.50;99.90
26304;DHT22;57113;48.680;8.890;2023-04-01T09:44:31;11.60;99.90
26304;DHT22;57113;48.680;8.890;2023-04-01T09:47:42;11.60;99.90
26304;DHT22;57113;48.680;8.890;2023-04-01T09:50:38;11.60;99.90
26304;DHT22;57113;48.680;8.890;2023-04-01T09:56:01;11.60;99.90
26304;DHT22;57113;48.680;8.890;2023-04-01T09:59:03;11.60;99.90
26304;DHT22;57113;48.680;8.890;2023-04-01T10:04:17;11.60;99.90
26304;DHT22;57113;48.680;8.890;2023-04-01T10:07:03;11.60;99.90
26304;DHT22;57113;48.680;8.890;2023-04-01T10:37:43;11.60;99.90
26304;DHT22;57113;48.680;8.890;2023-04-01T10:46:44;11.70;99.90
26304;DHT22;57113;48.680;8.890;2023-04-01T10:49:36;11.70;99.90
26304;DHT22;57113;48.680;8.890;2023-04-01T10:52:36;11.80;99.90
26304;DHT22;57113;48.680;8.890;2023-04-01T11:33:48;11.80;99.90
26304;DHT22;57113;48.680;8.890;2023-04-01T11:47:52;11.80;99.90
26304;DHT22;57113;48.680;8.890;2023-04-01T11:50:44;11.80;99.90
26304;DHT22;57113;48.680;8.890;2023-04-01T12:04:51;11.80;99.90
26304;DHT22;57113;48.680;8.890;2023-04-01T12:10:40;11.80;99.90
26304;DHT22;57113;48.680;8.890;2023-04-01T12:13:35;11.80;99.90
26304;DHT22;57113;48.680;8.890;2023-04-01T12:18:42;11.80;99.90
26304;DHT22;57113;48.680;8.890;2023-04-01T12:21:22;11.80;99.90
26304;DHT22;57113;48.680;8.890;2023-04-01T12:24:28;11.90;99.90
26304;DHT22;57113;48.680;8.890;2023-04-01T12:50:02;11.90;99.90
26304;DHT22;57113;48.680;8.890;2023-04-01T13:14:37;11.90;99.90
26304;DHT22;57113;48.680;8.890;2023-04-01T13:17:28;11.90;99.90
26304;DHT22;57113;48.680;8.890;2023-04-01T13:25:36;12.00;99.90
26304;DHT22;57113;48.680;8.890;2023-04-01T13:28:20;12.00;99.90
26304;DHT22;57113;48.680;8.890;2023-04-01T13:33:46;11.90;99.90
26304;DHT22;57113;48.680;8.890;2023-04-01T13:47:30;11.90;99.90
26304;DHT22;57113;48.680;8.890;2023-04-01T13:56:04;11.90;99.90
26304;DHT22;57113;48.680;8.890;2023-04-01T13:58:49;11.90;99.90
26304;DHT22;57113;48.680;8.890;2023-04-01T14:04:22;11.90;99.90
26304;DHT22;57113;48.680;8.890;2023-04-01T14:07:01;11.90;99.90
26304;DHT22;57113;48.680;8.890;2023-04-01T14:24:06;11.90;99.90
26304;DHT22;57113;48.680;8.890;2023-04-01T14:30:19;11.90;99.90
26304;DHT22;57113;48.680;8.890;2023-04-01T14:35:30;11.90;99.90
26304;DHT22;57113;48.680;8.890;2023-04-01T14:41:15;11.90;99.90
26304;DHT22;57113;48.680;8.890;2023-04-01T14:44:05;11.90;99.90
26304;DHT22;57113;48.680;8.890;2023-04-01T14:49:39;11.90;99.90
26304;DHT22;57113;48.680;8.890;2023-04-01T14:52:16;11.90;99.90
26304;DHT22;57113;48.680;8.890;2023-04-01T14:54:48;11.90;99.90
26304;DHT22;57113;48.680;8.890;2023-04-01T14:57:16;11.90;99.90
26304;DHT22;57113;48.680;8.890;2023-04-01T15:00:09;11.90;99.90
26304;DHT22;57113;48.680;8.890;2023-04-01T15:05:32;11.90;99.90
26304;DHT22;57113;48.680;8.890;2023-04-01T15:08:29;11.90;99.90
26304;DHT22;57113;48.680;8.890;2023-04-01T15:35:39;11.90;99.90
26304;DHT22;57113;48.680;8.890;2023-04-01T15:43:46;11.90;99.90
26304;DHT22;57113;48.680;8.890;2023-04-01T15:49:37;11.90;99.90
26304;DHT22;57113;48.680;8.890;2023-04-01T15:52:20;11.90;99.90
26304;DHT22;57113;48.680;8.890;2023-04-01T16:01:04;11.90;99.90
26304;DHT22;57113;48.680;8.890;2023-04-01T16:03:36;11.90;99.90
26304;DHT22;57113;48.680;8.890;2023-04-01T16:17:36;11.90;99.90
26304;DHT22;57113;48.680;8.890;2023-04-01T16:20:22;11.90;99.90
26304;DHT22;57113;48.680;8.890;2023-04-01T16:22:57;11.80;99.90
26304;DHT22;57113;48.680;8.890;2023-04-01T16:25:43;11.90;99.90
26304;DHT22;57113;48.680;8.890;2023-04-01T16:31:16;11.90;99.90
26304;DHT22;57113;48.680;8.890;2023-04-01T16:33:57;11.90;99.90
26304;DHT22;57113;48.680;8.890;2023-04-01T16:36:46;11.80;99.90
26304;DHT22;57113;48.680;8.890;2023-04-01T16:47:27;11.80;99.90
26304;DHT22;57113;48.680;8.890;2023-04-01T16:55:54;11.80;99.90
26304;DHT22;57113;48.680;8.890;2023-04-01T17:01:24;11.80;99.90
26304;DHT22;57113;48.680;8.890;2023-04-01T17:03:58;11.80;99.90
26304;DHT22;57113;48.680;8.890;2023-04-01T17:06:28;11.80;99.90
26304;DHT22;57113;48.680;8.890;2023-04-01T17:28:59;11.80;99.90
26304;DHT22;57113;48.680;8.890;2023-04-01T17:34:03;11.80;99.90
26304;DHT22;57113;48.680;8.890;2023-04-01T17:40:07;11.80;99.90
26304;DHT22;57113;48.680;8.890;2023-04-01T17:48:03;11.70;99.90
26304;DHT22;57113;48.680;8.890;2023-04-01T17:53:20;11.80;99.90
26304;DHT22;57113;48.680;8.890;2023-04-01T18:01:17;11.80;99.90
26304;DHT22;57113;48.680;8.890;2023-04-01T18:04:15;11.80;99.90
26304;DHT22;57113;48.680;8.890;2023-04-01T18:23:45;11.80;99.90
26304;DHT22;57113;48.680;8.890;2023-04-01T18:26:21;11.70;99.90
26304;DHT22;57113;48.680;8.890;2023-04-01T18:28:56;11.70;99.90
26304;DHT22;57113;48.680;8.890;2023-04-01T18:31:34;11.70;99.90
26304;DHT22;57113;48.680;8.890;2023-04-01T18:34:15;11.70;99.90
26304;DHT22;57113;48.680;8.890;2023-04-01T18:37:19;11.70;99.90
26304;DHT22;57113;48.680;8.890;2023-04-01T18:39:57;11.70;99.90
26304;DHT22;57113;48.680;8.890;2023-04-01T18:42:42;11.70;99.90
26304;DHT22;57113;48.680;8.890;2023-04-01T18:45:20;11.70;99.90
26304;DHT22;57113;48.680;8.890;2023-04-01T18:51:01;11.70;99.90
26304;DHT22;57113;48.680;8.890;2023-04-01T18:56:15;11.70;99.90
26304;DHT22;57113;48.680;8.890;2023-04-01T19:02:36;11.70;99.90
26304;DHT22;57113;48.680;8.890;2023-04-01T19:04:43;11.60;99.90
26304;DHT22;57113;48.680;8.890;2023-04-01T19:07:43;11.60;99.90
26304;DHT22;57113;48.680;8.890;2023-04-01T19:10:37;11.60;99.90
26304;DHT22;57113;48.680;8.890;2023-04-01T19:16:15;11.60;99.90
26304;DHT22;57113;48.680;8.890;2023-04-01T19:21:38;11.60;99.90
26304;DHT22;57113;48.680;8.890;2023-04-01T19:24:49;11.60;99.90
26304;DHT22;57113;48.680;8.890;2023-04-01T19:27:28;11.60;99.90
26304;DHT22;57113;48.680;8.890;2023-04-01T19:30:13;11.60;99.90
26304;DHT22;57113;48.680;8.890;2023-04-01T19:35:52;11.60;99.90
26304;DHT22;57113;48.680;8.890;2023-04-01T19:43:54;11.60;99.90
26304;DHT22;57113;48.680;8.890;2023-04-01T19:46:36;11.60;99.90
26304;DHT22;57113;48.680;8.890;2023-04-01T19:51:44;11.60;99.90
26304;DHT22;57113;48.680;8.890;2023-04-01T19:54:37;11.60;99.90
26304;DHT22;57113;48.680;8.890;2023-04-01T20:00:06;11.60;99.90
26304;DHT22;57113;48.680;8.890;2023-04-01T20:02:36;11.60;99.90
26304;DHT22;57113;48.680;8.890;2023-04-01T20:05:26;11.50;99.90
26304;DHT22;57113;48.680;8.890;2023-04-01T20:08:10;11.50;99.90
26304;DHT22;57113;48.680;8.890;2023-04-01T20:10:45;11.50;99.90
26304;DHT22;57113;48.680;8.890;2023-04-01T20:16:09;11.50;99.90
26304;DHT22;57113;48.680;8.890;2023-04-01T20:23:52;11.50;99.90
26304;DHT22;57113;48.680;8.890;2023-04-01T20:26:42;11.50;99.90
26304;DHT22;57113;48.680;8.890;2023-04-01T20:31:41;11.50;99.90
26304;DHT22;57113;48.680;8.890;2023-04-01T20:42:31;11.50;99.90
26304;DHT22;57113;48.680;8.890;2023-04-01T20:50:51;11.50;99.90
26304;DHT22;57113;48.680;8.890;2023-04-01T20:53:28;11.50;99.90
26304;DHT22;57113;48.680;8.890;2023-04-01T21:01:47;11.50;99.90
26304;DHT22;57113;48.680;8.890;2023-04-01T21:04:27;11.50;99.90
26304;DHT22;57113;48.680;8.890;2023-04-01T21:15:04;11.50;99.90
26304;DHT22;57113;48.680;8.890;2023-04-01T21:33:42;11.50;99.90
26304;DHT22;57113;48.680;8.890;2023-04-01T21:47:29;11.50;99.90
26304;DHT22;57113;48.680;8.890;2023-04-01T22:00:35;11.40;99.90
26304;DHT22;57113;48.680;8.890;2023-04-01T22:06:03;11.40;99.90
26304;DHT22;57113;48.680;8.890;2023-04-01T22:11:41;11.50;99.90
26304;DHT22;57113;48.680;8.890;2023-04-01T22:17:06;11.40;99.90
26304;DHT22;57113;48.680;8.890;2023-04-01T22:19:54;11.40;99.90
26304;DHT22;57113;48.680;8.890;2023-04-01T22:22:49;11.40;99.90
26304;DHT22;57113;48.680;8.890;2023-04-01T22:28:00;11.40;99.90
26304;DHT22;57113;48.680;8.890;2023-04-01T22:30:32;11.40;99.90
26304;DHT22;57113;48.680;8.890;2023-04-01T22:33:16;11.40;99.90
26304;DHT22;57113;48.680;8.890;2023-04-01T22:38:48;11.40;99.90
26304;DHT22;57113;48.680;8.890;2023-04-01T22:47:20;11.40;99.90
26304;DHT22;57113;48.680;8.890;2023-04-01T22:49:52;11.40;99.90
26304;DHT22;57113;48.680;8.890;2023-04-01T22:55:04;11.40;99.90
26304;DHT22;57113;48.680;8.890;2023-04-01T23:00:26;11.40;99.90
26304;DHT22;57113;48.680;8.890;2023-04-01T23:05:50;11.40;99.90
26304;DHT22;57113;48.680;8.890;2023-04-01T23:11:48;11.40;99.90
26304;DHT22;57113;48.680;8.890;2023-04-01T23:16:51;11.40;99.90
26304;DHT22;57113;48.680;8.890;2023-04-01T23:19:37;11.40;99.90
26304;DHT22;57113;48.680;8.890;2023-04-01T23:24:55;11.40;99.90
26304;DHT22;57113;48.680;8.890;2023-04-01T23:27:36;11.40;99.90
26304;DHT22;57113;48.680;8.890;2023-04-01T23:30:03;11.40;99.90
26304;DHT22;57113;48.680;8.890;2023-04-01T23:32:29;11.30;99.90
26304;DHT22;57113;48.680;8.890;2023-04-01T23:34:57;11.30;99.90
26304;DHT22;57113;48.680;8.890;2023-04-01T23:37:24;11.30;99.90
26304;DHT22;57113;48.680;8.890;2023-04-01T23:39:52;11.30;99.90
26304;DHT22;57113;48.680;8.890;2023-04-01T23:42:26;11.30;99.90
26304;DHT22;57113;48.680;8.890;2023-04-01T23:44:56;11.30;99.90
26304;DHT22;57113;48.680;8.890;2023-04-01T23:47:35;11.30;99.90
26304;DHT22;57113;48.680;8.890;2023-04-01T23:50:20;11.30;99.90
26304;DHT22;57113;48.680;8.890;2023-04-01T23:52:48;11.30;99.90
